Time;durP1;ratioP1;P1;durP2;ratioP2;P2;SDS_P1;SDS_P2;PMS_P1;PMS_P2;Temp;Humidity;BMP_temperature;BMP_pressure;BME280_temperature;BME280_humidity;BME280_pressure;Samples;Min_cycle;Max_cycle;Signal;HPM_P1;HPM_P2
2024/01/09 00:01:31;;;;;;;28.67;13.27;;;;;;;-12.12;69.74;102514.28;4987199;28;20200;-57
2024/01/09 00:03:59;;;;;;;28.90;12.27;;;;;;;-12.15;69.71;102511.44;4995337;28;20231;-56
2024/01/09 00:06:27;;;;;;;29.50;12.87;;;;;;;-12.17;70.09;102504.69;4995199;28;20204;-62
2024/01/09 00:08:58;;;;;;;29.90;12.67;;;;;;;-12.15;70.31;102511.44;4994045;28;20208;-57
2024/01/09 00:11:26;;;;;;;28.73;12.27;;;;;;;-12.13;70.45;102505.94;4995714;28;20208;-59
2024/01/09 00:13:55;;;;;;;25.27;13.00;;;;;;;-12.11;71.04;102498.66;4988240;28;20605;-58
2024/01/09 00:16:24;;;;;;;29.27;12.43;;;;;;;-12.10;70.40;102490.53;4996406;28;20208;-58
2024/01/09 00:18:54;;;;;;;34.07;14.00;;;;;;;-12.07;70.51;102490.88;4989648;28;20259;-59
2024/01/09 00:21:23;;;;;;;24.87;12.77;;;;;;;-12.05;70.76;102492.81;4989661;28;20236;-61
2024/01/09 00:23:51;;;;;;;31.30;13.70;;;;;;;-12.04;70.77;102492.13;4998633;28;20240;-58
2024/01/09 00:26:21;;;;;;;30.47;14.00;;;;;;;-12.00;70.94;102494.28;4999520;28;20224;-65
2024/01/09 00:28:49;;;;;;;33.77;14.00;;;;;;;-11.96;70.75;102493.03;4998760;28;20233;-57
2024/01/09 00:31:18;;;;;;;31.23;14.63;;;;;;;-11.93;70.53;102491.78;4995782;28;20235;-58
2024/01/09 00:33:46;;;;;;;31.40;12.73;;;;;;;-11.90;70.31;102486.28;5003488;28;20219;-57
2024/01/09 00:36:15;;;;;;;33.43;15.23;;;;;;;-11.88;70.73;102484.00;4997997;28;20674;-57
2024/01/09 00:38:43;;;;;;;33.63;13.90;;;;;;;-11.87;70.09;102481.66;5003953;28;20219;-59
2024/01/09 00:41:10;;;;;;;36.33;14.27;;;;;;;-11.86;70.57;102485.03;4992685;28;20205;-56
2024/01/09 00:43:38;;;;;;;30.27;13.23;;;;;;;-11.87;70.33;102486.63;4999769;28;20204;-57
2024/01/09 00:46:06;;;;;;;29.70;14.00;;;;;;;-11.87;70.15;102486.63;5001064;28;20670;-58
2024/01/09 00:48:36;;;;;;;31.07;14.00;;;;;;;-11.88;70.40;102484.00;4991889;28;20199;-60
2024/01/09 00:51:04;;;;;;;34.43;14.07;;;;;;;-11.89;70.29;102473.16;5002169;28;20208;-59
2024/01/09 00:53:32;;;;;;;34.27;14.97;;;;;;;-11.90;70.15;102481.31;5002279;28;20594;-57
2024/01/09 00:56:00;;;;;;;31.47;14.33;;;;;;;-11.90;70.43;102491.25;4990534;28;20583;-58
2024/01/09 00:58:28;;;;;;;30.53;14.17;;;;;;;-11.91;70.32;102489.47;4995412;28;20214;-57
2024/01/09 01:00:56;;;;;;;35.33;14.80;;;;;;;-11.90;70.15;102487.88;4994230;28;20301;-57
2024/01/09 01:03:24;;;;;;;36.17;16.30;;;;;;;-11.91;70.66;102482.03;4995729;28;20833;-57
2024/01/09 01:05:53;;;;;;;31.13;14.77;;;;;;;-11.89;70.73;102490.56;4990056;28;20219;-57
2024/01/09 01:08:21;;;;;;;30.40;13.93;;;;;;;-11.90;70.57;102490.38;4985458;28;20303;-56
2024/01/09 01:10:49;;;;;;;34.53;15.10;;;;;;;-11.90;70.77;102488.75;4991855;28;20211;-56
2024/01/09 01:13:17;;;;;;;29.07;13.33;;;;;;;-11.89;70.34;102487.16;4995782;28;20204;-57
2024/01/09 01:15:45;;;;;;;31.97;14.13;;;;;;;-11.90;70.41;102491.25;4993043;28;20227;-58
2024/01/09 01:18:14;;;;;;;31.90;13.80;;;;;;;-11.89;70.42;102494.63;4992545;28;20207;-57
2024/01/09 01:20:42;;;;;;;31.37;13.33;;;;;;;-11.91;70.98;102489.47;4990825;28;20560;-58
2024/01/09 01:23:11;;;;;;;31.93;14.33;;;;;;;-11.91;70.38;102491.06;4993985;28;20911;-58
2024/01/09 01:25:39;;;;;;;31.83;13.73;;;;;;;-11.91;71.04;102491.97;4998842;28;20247;-64
2024/01/09 01:28:07;;;;;;;33.97;13.60;;;;;;;-11.90;70.50;102501.19;4993797;28;20671;-55
2024/01/09 01:30:35;;;;;;;32.47;13.30;;;;;;;-11.88;70.77;102504.75;4994920;28;20220;-59
2024/01/09 01:33:03;;;;;;;28.53;14.23;;;;;;;-11.87;70.55;102510.63;4999481;28;20208;-58
2024/01/09 01:35:31;;;;;;;31.47;13.83;;;;;;;-11.86;70.57;102503.31;4999822;28;20203;-58
2024/01/09 01:37:59;;;;;;;30.00;13.67;;;;;;;-11.85;70.61;102495.19;4990293;28;20578;-56
2024/01/09 01:40:28;;;;;;;34.17;14.80;;;;;;;-11.85;70.66;102495.19;5000838;28;20334;-58
2024/01/09 01:42:57;;;;;;;35.33;13.70;;;;;;;-11.84;70.59;102489.50;4994504;28;20646;-59
2024/01/09 01:45:25;;;;;;;35.37;13.43;;;;;;;-11.85;70.38;102492.69;4995955;28;20627;-56
2024/01/09 01:47:53;;;;;;;31.77;13.93;;;;;;;-11.81;70.48;102498.88;4995363;28;20204;-57
2024/01/09 01:50:22;;;;;;;29.27;14.37;;;;;;;-11.81;70.60;102499.75;4996983;28;20589;-57
2024/01/09 01:52:51;;;;;;;37.87;16.10;;;;;;;-11.80;71.03;102494.06;4994447;28;21215;-59
2024/01/09 01:55:24;;;;;;;34.93;14.10;;;;;;;-11.79;70.56;102503.28;4993450;28;20207;-58
2024/01/09 01:57:55;;;;;;;31.07;13.90;;;;;;;-11.77;70.24;102504.38;4989851;28;20231;-61
2024/01/09 02:00:25;;;;;;;25.50;12.80;;;;;;;-11.76;70.56;102513.59;4989980;28;20200;-58
2024/01/09 02:02:54;;;;;;;29.80;12.50;;;;;;;-11.75;70.58;102515.38;4998238;28;20203;-58
2024/01/09 02:05:24;;;;;;;35.27;14.33;;;;;;;-11.77;70.23;102514.31;4988199;28;20325;-59
2024/01/09 02:07:54;;;;;;;31.17;13.33;;;;;;;-11.78;70.33;102511.63;5001119;28;20212;-57
2024/01/09 02:10:23;;;;;;;32.07;12.60;;;;;;;-11.79;70.36;102508.25;4992498;28;20671;-59
2024/01/09 02:12:51;;;;;;;31.43;13.50;;;;;;;-11.81;70.39;102502.25;4995334;28;20665;-62
2024/01/09 02:15:20;;;;;;;32.37;14.77;;;;;;;-11.79;70.46;102513.25;4992530;28;20701;-58
2024/01/09 02:17:48;;;;;;;34.20;14.63;;;;;;;-11.78;70.29;102514.13;4994186;28;20199;-59
2024/01/09 02:20:16;;;;;;;27.20;13.13;;;;;;;-11.78;70.39;102512.56;4991366;28;20206;-58
2024/01/09 02:22:44;;;;;;;33.67;14.13;;;;;;;-11.79;70.24;102513.25;4989409;28;20698;-58
2024/01/09 02:25:12;;;;;;;28.33;14.20;;;;;;;-11.80;70.42;102513.97;4988555;28;20230;-57
2024/01/09 02:27:50;;;;;;;31.77;15.00;;;;;;;-11.78;70.34;102511.63;4996621;28;20294;-57
2024/01/09 02:30:20;;;;;;;34.53;14.43;;;;;;;-11.79;70.73;102523.19;4999160;28;20208;-56
2024/01/09 02:32:48;;;;;;;33.03;15.17;;;;;;;-11.80;70.48;102511.47;4992439;28;20242;-59
2024/01/09 02:35:16;;;;;;;32.30;13.67;;;;;;;-11.78;70.90;102514.13;5000659;28;20286;-58
2024/01/09 02:37:44;;;;;;;32.03;13.93;;;;;;;-11.79;70.64;102519.81;4996944;28;20669;-60
2024/01/09 02:40:12;;;;;;;30.90;14.67;;;;;;;-11.79;70.66;102513.25;4999438;28;20210;-60
2024/01/09 02:42:40;;;;;;;39.80;15.00;;;;;;;-11.80;71.01;102513.97;5000442;28;20208;-57
2024/01/09 02:45:10;;;;;;;30.43;14.83;;;;;;;-11.82;70.61;102507.91;4994299;28;20703;-60
2024/01/09 02:47:39;;;;;;;29.93;14.60;;;;;;;-11.79;71.20;102515.72;4990090;28;20541;-57
2024/01/09 02:50:08;;;;;;;32.87;13.97;;;;;;;-11.80;70.75;102513.97;4995516;28;20228;-55
2024/01/09 02:52:36;;;;;;;36.20;16.00;;;;;;;-11.80;71.06;102508.09;4992399;28;20204;-56
2024/01/09 02:55:04;;;;;;;24.57;13.00;;;;;;;-11.80;71.02;102508.97;4999095;28;20600;-58
2024/01/09 02:57:32;;;;;;;34.30;14.40;;;;;;;-11.80;70.85;102508.97;4993754;28;20239;-58
2024/01/09 03:00:00;;;;;;;32.73;14.90;;;;;;;-11.78;70.88;102511.63;4991038;28;20277;-60
2024/01/09 03:02:28;;;;;;;33.00;13.93;;;;;;;-11.77;70.92;102511.84;5000564;28;20719;-59
2024/01/09 03:04:57;;;;;;;31.93;15.40;;;;;;;-11.73;71.67;102509.00;4991809;28;20234;-58
2024/01/09 03:07:25;;;;;;;29.10;13.67;;;;;;;-11.71;70.83;102507.59;4994830;28;20663;-60
2024/01/09 03:09:53;;;;;;;30.90;14.13;;;;;;;-11.69;70.98;102515.22;5000815;28;20199;-59
2024/01/09 03:12:21;;;;;;;29.00;13.00;;;;;;;-11.68;70.54;102510.41;4994726;28;20557;-57
2024/01/09 03:14:49;;;;;;;31.33;12.70;;;;;;;-11.65;71.18;102513.97;4995975;28;20212;-62
2024/01/09 03:17:17;;;;;;;32.63;14.13;;;;;;;-11.66;71.14;102510.59;4990700;28;20603;-56
2024/01/09 03:19:45;;;;;;;28.40;14.10;;;;;;;-11.64;71.07;102511.66;4989177;28;20271;-58
2024/01/09 03:22:14;;;;;;;34.97;14.73;;;;;;;-11.63;70.84;102512.53;5003501;28;20390;-56
2024/01/09 03:24:42;;;;;;;34.57;14.37;;;;;;;-11.64;71.07;102515.72;4996714;28;20574;-63
2024/01/09 03:27:10;;;;;;;35.73;13.77;;;;;;;-11.63;70.98;102510.97;4997270;28;20220;-62
2024/01/09 03:29:38;;;;;;;27.90;13.40;;;;;;;-11.61;71.34;102516.97;4996310;28;20239;-58
2024/01/09 03:32:07;;;;;;;32.00;14.67;;;;;;;-11.62;71.05;102519.31;4996409;28;20227;-62
2024/01/09 03:34:35;;;;;;;30.80;13.43;;;;;;;-11.63;71.41;102522.47;4997382;28;20212;-57
2024/01/09 03:37:03;;;;;;;31.97;14.60;;;;;;;-11.62;71.63;102519.31;4993619;28;20200;-60
2024/01/09 03:39:32;;;;;;;32.13;14.47;;;;;;;-11.61;70.50;102523.56;4995438;28;20286;-59
2024/01/09 03:42:00;;;;;;;37.20;16.20;;;;;;;-11.61;70.73;102521.06;4996914;28;20616;-58
2024/01/09 03:44:28;;;;;;;35.50;15.87;;;;;;;-11.61;71.20;102526.03;4990046;28;20642;-58
2024/01/09 03:46:56;;;;;;;36.47;15.33;;;;;;;-11.63;70.85;102517.50;4995964;28;20697;-58
2024/01/09 03:49:24;;;;;;;29.93;14.40;;;;;;;-11.65;71.50;102513.97;4994352;28;20196;-59
2024/01/09 03:51:52;;;;;;;36.13;15.07;;;;;;;-11.68;70.78;102515.38;4997928;28;20674;-54
2024/01/09 03:54:19;;;;;;;27.00;14.03;;;;;;;-11.69;70.78;102513.59;4991124;28;20251;-55
2024/01/09 03:56:49;;;;;;;26.97;14.13;;;;;;;-11.68;71.03;102512.88;4993744;28;20203;-59
2024/01/09 03:59:17;;;;;;;25.63;13.77;;;;;;;-11.69;71.46;102518.59;4996272;28;20228;-56
2024/01/09 04:01:45;;;;;;;34.90;15.00;;;;;;;-11.65;71.73;102513.97;5000888;28;20235;-55
2024/01/09 04:04:13;;;;;;;33.67;15.43;;;;;;;-11.62;71.64;102514.34;4994225;28;20814;-54
2024/01/09 04:06:44;;;;;;;35.63;15.00;;;;;;;-11.59;71.55;102512.22;5001736;28;20242;-58
2024/01/09 04:09:12;;;;;;;34.33;15.10;;;;;;;-11.59;71.12;102512.22;4999697;28;20292;-59
2024/01/09 04:11:44;;;;;;;35.00;14.87;;;;;;;-11.59;71.18;102513.09;4990758;28;21591;-58
2024/01/09 04:14:14;;;;;;;31.67;14.93;;;;;;;-11.59;71.83;102514.69;4995388;28;20741;-55
2024/01/09 04:16:46;;;;;;;31.33;13.87;;;;;;;-11.60;71.41;102510.41;4995115;28;20627;-60
2024/01/09 04:19:14;;;;;;;36.20;14.20;;;;;;;-11.58;71.71;102509.00;4994784;28;20680;-56
2024/01/09 04:21:42;;;;;;;28.30;14.30;;;;;;;-11.58;71.87;102511.50;4988146;28;20227;-55
2024/01/09 04:24:10;;;;;;;39.60;14.77;;;;;;;-11.58;71.58;102504.91;4990862;28;20385;-53
2024/01/09 04:26:38;;;;;;;36.03;15.37;;;;;;;-11.56;71.68;102508.47;4995790;28;20709;-54
2024/01/09 04:29:06;;;;;;;34.83;14.90;;;;;;;-11.51;71.32;102516.47;4989435;28;20271;-53
2024/01/09 04:31:35;;;;;;;32.40;15.07;;;;;;;-11.52;71.30;102509.72;4983497;28;20274;-53
2024/01/09 04:34:03;;;;;;;34.03;14.43;;;;;;;-11.50;71.04;102513.25;4997086;28;20204;-54
2024/01/09 04:36:31;;;;;;;33.27;15.00;;;;;;;-11.47;71.59;102511.13;4992858;28;20196;-59
2024/01/09 04:39:00;;;;;;;31.40;14.03;;;;;;;-11.46;71.22;102503.81;4992120;28;20209;-56
2024/01/09 04:41:28;;;;;;;32.80;13.93;;;;;;;-11.46;70.76;102502.94;4998540;28;20208;-54
2024/01/09 04:43:56;;;;;;;34.33;15.00;;;;;;;-11.45;71.17;102494.75;4991834;28;20672;-54
2024/01/09 04:46:24;;;;;;;33.70;15.10;;;;;;;-11.45;71.25;102499.72;4990578;28;20234;-54
2024/01/09 04:48:53;;;;;;;39.10;15.50;;;;;;;-11.47;70.91;102497.09;4989423;28;20678;-54
2024/01/09 04:51:21;;;;;;;30.67;15.73;;;;;;;-11.46;70.98;102497.97;4990191;28;20291;-54
2024/01/09 04:53:49;;;;;;;33.00;15.03;;;;;;;-11.45;70.30;102504.72;4995687;28;20211;-62
2024/01/09 04:56:18;;;;;;;29.27;14.57;;;;;;;-11.47;70.67;102507.03;4994905;28;20295;-53
2024/01/09 04:58:46;;;;;;;40.33;15.37;;;;;;;-11.46;71.02;102505.44;4992574;28;20619;-52
2024/01/09 05:01:14;;;;;;;34.23;15.20;;;;;;;-11.45;70.50;102509.69;5002006;28;20238;-52
2024/01/09 05:03:46;;;;;;;32.33;15.13;;;;;;;-11.42;70.52;102512.53;4994299;28;20705;-55
2024/01/09 05:06:17;;;;;;;29.57;14.03;;;;;;;-11.44;70.56;102504.91;4997799;28;20218;-56
2024/01/09 05:08:46;;;;;;;33.07;14.10;;;;;;;-11.44;70.61;102504.03;4986700;28;20200;-53
2024/01/09 05:11:15;;;;;;;30.67;15.13;;;;;;;-11.44;70.72;102506.50;4996246;28;20290;-59
2024/01/09 05:13:46;;;;;;;36.00;14.90;;;;;;;-11.42;70.68;102505.06;4999742;28;20240;-60
2024/01/09 05:16:14;;;;;;;30.47;14.63;;;;;;;-11.42;70.20;102502.59;4995825;28;20208;-59
2024/01/09 05:18:44;;;;;;;33.33;16.13;;;;;;;-11.45;70.70;102499.72;4990797;28;20203;-60
2024/01/09 05:21:12;;;;;;;36.90;16.60;;;;;;;-11.39;70.11;102510.41;4993710;28;20561;-58
2024/01/09 05:23:42;;;;;;;34.07;15.83;;;;;;;-11.39;70.85;102512.91;5003116;28;20240;-55
2024/01/09 05:26:10;;;;;;;34.10;14.77;;;;;;;-11.41;70.60;102515.91;5002250;28;20231;-53
2024/01/09 05:28:38;;;;;;;32.97;15.70;;;;;;;-11.41;70.26;102509.34;4991441;28;20210;-54
2024/01/09 05:31:06;;;;;;;30.73;15.10;;;;;;;-11.42;70.39;102522.47;4996050;28;20543;-52
2024/01/09 05:33:35;;;;;;;29.97;15.23;;;;;;;-11.43;70.69;102513.25;4999438;28;20312;-55
2024/01/09 05:36:04;;;;;;;36.73;17.13;;;;;;;-11.43;70.44;102511.66;4995566;28;20662;-55
2024/01/09 05:38:32;;;;;;;43.10;18.03;;;;;;;-11.44;70.50;102511.50;4997518;28;20706;-56
2024/01/09 05:41:03;;;;;;;37.73;15.97;;;;;;;-11.44;70.43;102513.97;4992652;28;20262;-56
2024/01/09 05:43:30;;;;;;;37.73;16.80;;;;;;;-11.45;70.62;102514.66;4997668;28;20755;-60
2024/01/09 05:45:58;;;;;;;46.33;19.17;;;;;;;-11.44;70.26;102516.47;4990539;28;20271;-61
2024/01/09 05:48:26;;;;;;;34.43;15.53;;;;;;;-11.46;69.92;102513.78;4981565;28;20900;-59
2024/01/09 05:50:54;;;;;;;40.90;19.00;;;;;;;-11.46;70.03;102515.38;4989968;28;20206;-63
2024/01/09 05:53:22;;;;;;;42.00;19.03;;;;;;;-11.46;70.15;102513.78;4982559;28;20239;-57
2024/01/09 05:55:51;;;;;;;39.60;18.07;;;;;;;-11.44;70.02;102518.94;4990314;28;20266;-57
2024/01/09 05:58:20;;;;;;;43.37;17.80;;;;;;;-11.44;70.40;102521.44;4997263;28;20199;-58
2024/01/09 06:00:48;;;;;;;42.40;17.77;;;;;;;-11.45;70.35;102524.59;4995039;28;20675;-62
2024/01/09 06:03:16;;;;;;;38.33;18.10;;;;;;;-11.46;70.17;102517.88;4999636;28;20216;-60
2024/01/09 06:05:44;;;;;;;40.40;18.17;;;;;;;-11.46;69.86;102520.34;4999044;28;20749;-58
2024/01/09 06:08:13;;;;;;;34.60;17.67;;;;;;;-11.45;69.99;102527.09;4988853;28;20212;-58
2024/01/09 06:10:42;;;;;;;39.23;17.47;;;;;;;-11.45;69.85;102532.06;4990719;28;20207;-57
2024/01/09 06:13:10;;;;;;;36.00;17.37;;;;;;;-11.45;70.23;102534.56;4994393;28;20622;-52
2024/01/09 06:15:39;;;;;;;40.67;18.73;;;;;;;-11.43;70.51;102533.16;4993850;28;20200;-50
2024/01/09 06:18:07;;;;;;;41.70;18.90;;;;;;;-11.44;70.51;102537.25;4988706;28;20219;-59
2024/01/09 06:20:36;;;;;;;37.60;18.60;;;;;;;-11.44;70.64;102541.34;4998056;28;20217;-55
2024/01/09 06:23:05;;;;;;;37.83;17.23;;;;;;;-11.40;70.70;102542.59;4995470;28;20242;-58
2024/01/09 06:25:33;;;;;;;37.17;17.60;;;;;;;-11.42;70.22;102544.88;4991307;28;20219;-58
2024/01/09 06:28:01;;;;;;;37.33;17.77;;;;;;;-11.39;70.28;102554.31;4988511;28;20220;-61
2024/01/09 06:30:30;;;;;;;40.37;17.43;;;;;;;-11.38;70.05;102544.50;4989629;28;20318;-57
2024/01/09 06:32:59;;;;;;;43.40;16.83;;;;;;;-11.39;70.53;102552.69;4996994;28;20231;-56
2024/01/09 06:35:27;;;;;;;39.20;16.93;;;;;;;-11.37;69.78;102550.41;4995223;28;20218;-56
2024/01/09 06:37:55;;;;;;;35.43;17.77;;;;;;;-11.36;69.98;102550.56;4987096;28;20204;-57
2024/01/09 06:40:24;;;;;;;46.50;20.10;;;;;;;-11.37;70.03;102551.28;4990187;28;20290;-60
2024/01/09 06:42:52;;;;;;;38.20;18.77;;;;;;;-11.31;70.08;102556.94;4991872;28;20214;-59
2024/01/09 06:45:20;;;;;;;42.13;18.30;;;;;;;-11.29;70.20;102547.19;4987165;28;20239;-60
2024/01/09 06:47:48;;;;;;;43.50;19.03;;;;;;;-11.29;69.87;102545.59;4988098;28;20661;-57
2024/01/09 06:50:18;;;;;;;46.43;18.47;;;;;;;-11.31;69.58;102546.13;4996753;28;20212;-57
2024/01/09 06:53:00;;;;;;;38.17;16.37;;;;;;;-11.31;69.87;102564.41;4992738;28;20255;-59
2024/01/09 06:55:28;;;;;;;50.97;19.03;;;;;;;-11.31;69.93;102558.56;4997076;28;20207;-53
2024/01/09 06:57:56;;;;;;;39.00;16.97;;;;;;;-11.31;70.22;102554.47;4995801;28;20208;-53
2024/01/09 07:00:24;;;;;;;35.97;18.10;;;;;;;-11.28;69.91;102556.44;4990622;28;20196;-56
2024/01/09 07:02:52;;;;;;;42.47;18.30;;;;;;;-11.26;70.01;102560.88;4993061;28;20571;-55
2024/01/09 07:05:21;;;;;;;41.30;18.63;;;;;;;-11.23;69.61;102563.72;4993726;28;20247;-52
2024/01/09 07:07:50;;;;;;;40.53;17.60;;;;;;;-11.21;70.04;102569.75;4995327;28;20762;-56
2024/01/09 07:10:18;;;;;;;50.63;19.63;;;;;;;-11.20;70.34;102571.53;4998771;28;20263;-61
2024/01/09 07:12:47;;;;;;;38.70;17.63;;;;;;;-11.16;70.77;102576.84;5002460;28;20579;-53
2024/01/09 07:15:15;;;;;;;39.10;17.93;;;;;;;-11.13;70.25;102573.13;4998273;28;20210;-50
2024/01/09 07:17:45;;;;;;;44.03;20.03;;;;;;;-11.10;70.22;102575.09;5002265;28;20222;-52
2024/01/09 07:20:14;;;;;;;41.23;19.93;;;;;;;-11.06;70.00;102574.72;4998255;28;20204;-51
2024/01/09 07:22:44;;;;;;;38.87;18.90;;;;;;;-11.05;70.12;102564.94;4990601;28;20282;-51
2024/01/09 07:25:16;;;;;;;41.83;18.83;;;;;;;-11.04;69.88;102571.72;5000187;28;20685;-50
2024/01/09 07:27:44;;;;;;;39.00;19.13;;;;;;;-11.05;69.64;102569.91;4996287;28;20318;-55
2024/01/09 07:30:13;;;;;;;41.10;19.93;;;;;;;-11.05;69.29;102572.41;4994504;28;20207;-53
2024/01/09 07:32:41;;;;;;;46.57;19.33;;;;;;;-11.06;69.18;102574.72;4988815;28;20278;-51
2024/01/09 07:35:10;;;;;;;40.17;18.60;;;;;;;-11.04;69.20;102583.28;4978137;28;20279;-58
2024/01/09 07:37:38;;;;;;;44.67;20.07;;;;;;;-11.04;68.98;102590.75;4993560;28;20762;-62
2024/01/09 07:40:09;;;;;;;39.70;18.80;;;;;;;-11.01;69.23;102587.00;4992440;28;20205;-54
2024/01/09 07:42:37;;;;;;;40.37;18.83;;;;;;;-11.00;69.61;102580.41;4994995;28;20271;-53
2024/01/09 07:45:19;;;;;;;39.57;18.27;;;;;;;-10.96;69.40;102587.53;4987024;28;20289;-54
2024/01/09 07:47:48;;;;;;;43.60;20.07;;;;;;;-10.93;68.76;102580.41;4997080;28;20228;-56
2024/01/09 07:50:16;;;;;;;49.70;19.83;;;;;;;-10.96;68.53;102580.06;4995902;28;20739;-56
2024/01/09 07:52:44;;;;;;;45.10;18.03;;;;;;;-10.90;68.91;102583.22;4997215;28;20200;-60
2024/01/09 07:55:14;;;;;;;34.17;17.83;;;;;;;-10.84;68.82;102590.53;4990915;28;20676;-53
2024/01/09 07:57:41;;;;;;;38.83;17.63;;;;;;;-10.79;68.46;102589.44;4992630;28;20566;-51
2024/01/09 08:00:10;;;;;;;37.67;18.03;;;;;;;-10.73;69.07;102596.00;4997372;28;20207;-49
2024/01/09 08:02:38;;;;;;;42.87;19.77;;;;;;;-10.67;68.73;102594.94;4991725;28;20215;-54
2024/01/09 08:05:07;;;;;;;39.03;18.53;;;;;;;-10.60;68.23;102590.84;4996225;28;20211;-56
2024/01/09 08:07:35;;;;;;;41.43;17.67;;;;;;;-10.57;68.66;102595.25;4995812;28;20215;-55
2024/01/09 08:10:03;;;;;;;37.57;17.50;;;;;;;-10.54;68.25;102583.16;4997668;28;20204;-52
2024/01/09 08:12:32;;;;;;;42.83;17.63;;;;;;;-10.53;67.94;102595.81;4990970;28;20208;-51
2024/01/09 08:15:00;;;;;;;39.60;17.97;;;;;;;-10.51;67.85;102591.88;4991496;28;20574;-48
2024/01/09 08:17:29;;;;;;;35.97;18.23;;;;;;;-10.46;67.88;102594.88;4995001;28;20207;-51
2024/01/09 08:19:57;;;;;;;37.13;16.70;;;;;;;-10.44;68.50;102585.97;4995205;28;20206;-52
2024/01/09 08:22:25;;;;;;;38.93;16.90;;;;;;;-10.41;67.60;102591.31;4994707;28;21313;-52
2024/01/09 08:24:53;;;;;;;37.80;17.67;;;;;;;-10.39;68.18;102593.97;4994996;28;20208;-57
2024/01/09 08:27:21;;;;;;;38.13;17.07;;;;;;;-10.36;67.44;102599.28;4992573;28;20220;-51
2024/01/09 08:29:50;;;;;;;41.07;17.93;;;;;;;-10.34;67.27;102600.38;4996006;28;20223;-56
2024/01/09 08:32:18;;;;;;;58.73;24.93;;;;;;;-10.29;67.24;102595.16;4991899;28;20211;-49
2024/01/09 08:34:47;;;;;;;41.23;17.70;;;;;;;-10.24;66.57;102589.06;4994986;28;20204;-53
2024/01/09 08:37:15;;;;;;;36.90;17.50;;;;;;;-10.17;66.66;102599.72;4991128;28;20246;-51
2024/01/09 08:39:43;;;;;;;37.03;17.80;;;;;;;-10.15;67.03;102593.31;4991119;28;20207;-64
2024/01/09 08:42:11;;;;;;;39.27;18.60;;;;;;;-10.10;66.23;102595.59;4991630;28;20211;-52
2024/01/09 08:44:39;;;;;;;35.67;17.60;;;;;;;-10.07;65.88;102600.03;4992199;28;20663;-52
2024/01/09 08:47:08;;;;;;;41.67;18.87;;;;;;;-10.10;64.09;102600.56;4992526;28;20270;-56
2024/01/09 08:49:37;;;;;;;33.33;16.50;;;;;;;-10.13;63.64;102604.31;4996121;28;20223;-57
2024/01/09 08:52:05;;;;;;;37.17;17.00;;;;;;;-10.15;63.61;102613.25;4992413;28;20242;-53
2024/01/09 08:54:34;;;;;;;40.63;17.87;;;;;;;-10.21;63.59;102611.84;4995682;28;20302;-55
2024/01/09 08:57:01;;;;;;;40.20;16.90;;;;;;;-10.17;63.96;102607.19;4998111;28;20208;-51
2024/01/09 08:59:29;;;;;;;34.23;15.83;;;;;;;-10.13;64.02;102605.22;4995349;28;20224;-57
2024/01/09 09:01:57;;;;;;;33.50;15.73;;;;;;;-10.07;64.10;102605.03;4992699;28;20203;-54
2024/01/09 09:04:27;;;;;;;41.13;19.87;;;;;;;-10.01;63.43;102609.09;4999945;28;20200;-52
2024/01/09 09:06:54;;;;;;;41.33;18.67;;;;;;;-10.01;62.80;102606.59;4996170;28;20215;-54
2024/01/09 09:09:22;;;;;;;37.67;17.13;;;;;;;-10.03;63.51;102603.03;5000653;28;20694;-53
2024/01/09 09:11:51;;;;;;;37.37;18.43;;;;;;;-10.04;62.47;102603.75;4989360;28;20228;-53
2024/01/09 09:14:18;;;;;;;44.13;18.33;;;;;;;-10.03;63.22;102594.66;4996380;28;20246;-56
2024/01/09 09:16:46;;;;;;;40.97;18.63;;;;;;;-9.95;63.57;102605.50;4992519;28;20208;-51
2024/01/09 09:19:14;;;;;;;45.63;20.63;;;;;;;-9.95;63.86;102606.38;4988958;28;20655;-53
2024/01/09 09:21:44;;;;;;;45.20;18.70;;;;;;;-9.89;63.95;102587.13;4989904;28;20207;-56
2024/01/09 09:24:12;;;;;;;41.50;18.57;;;;;;;-9.83;64.03;102587.81;4995158;28;20231;-58
2024/01/09 09:26:42;;;;;;;40.23;17.67;;;;;;;-9.76;63.86;102590.22;4994150;28;20659;-56
2024/01/09 09:29:11;;;;;;;39.03;18.47;;;;;;;-9.68;63.84;102603.56;4997379;28;20312;-57
2024/01/09 09:31:54;;;;;;;40.63;18.57;;;;;;;-9.67;63.11;102600.34;4991789;28;20199;-57
2024/01/09 09:34:22;;;;;;;36.97;17.53;;;;;;;-9.65;62.93;102598.91;4992052;28;20205;-52
2024/01/09 09:36:52;;;;;;;44.67;18.17;;;;;;;-9.64;62.23;102602.31;4989284;28;20204;-54
2024/01/09 09:39:20;;;;;;;44.50;17.60;;;;;;;-9.66;61.60;102597.13;4993295;28;20209;-56
2024/01/09 09:41:55;;;;;;;41.33;16.83;;;;;;;-9.60;61.73;102599.44;5004119;28;20680;-56
2024/01/09 09:44:25;;;;;;;38.00;16.33;;;;;;;-9.58;62.02;102595.47;4994233;28;20222;-56
2024/01/09 09:46:54;;;;;;;39.00;17.90;;;;;;;-9.53;61.52;102594.41;4983809;28;20573;-53
2024/01/09 09:49:23;;;;;;;36.23;16.50;;;;;;;-9.48;62.04;102593.28;4989143;28;20218;-55
2024/01/09 09:51:54;;;;;;;43.50;15.77;;;;;;;-9.41;61.93;102594.84;4990945;28;20219;-55
2024/01/09 09:54:23;;;;;;;37.60;17.23;;;;;;;-9.34;61.46;102592.28;4993799;28;20559;-52
2024/01/09 09:56:51;;;;;;;40.73;18.77;;;;;;;-9.27;61.96;102590.63;4992508;28;20204;-53
2024/01/09 09:59:19;;;;;;;44.70;19.73;;;;;;;-9.20;62.03;102597.19;4993664;28;20203;-53
2024/01/09 10:01:48;;;;;;;43.73;17.40;;;;;;;-9.14;61.79;102587.81;4991616;28;20215;-58
2024/01/09 10:04:28;;;;;;;42.73;17.43;;;;;;;-9.09;61.28;102585.84;4990846;28;20259;-57
2024/01/09 10:06:59;;;;;;;36.27;17.30;;;;;;;-9.04;61.76;102582.22;4996409;28;20205;-58
2024/01/09 10:09:32;;;;;;;41.17;18.60;;;;;;;-8.96;62.19;102580.53;4998590;28;20220;-65
2024/01/09 10:11:59;;;;;;;41.10;18.77;;;;;;;-8.92;62.01;102576.03;4990147;28;20212;-53
2024/01/09 10:14:28;;;;;;;44.37;19.07;;;;;;;-8.86;62.82;102580.81;4992971;28;20239;-54
2024/01/09 10:16:56;;;;;;;48.83;20.80;;;;;;;-8.80;62.04;102586.44;4988493;28;20211;-52
2024/01/09 10:19:24;;;;;;;38.83;18.73;;;;;;;-8.74;61.71;102576.22;4994459;28;20758;-54
2024/01/09 10:21:52;;;;;;;48.97;22.27;;;;;;;-8.70;61.00;102578.31;4988992;28;20208;-58
2024/01/09 10:24:22;;;;;;;42.40;20.43;;;;;;;-8.64;61.20;102577.38;4989591;28;20211;-56
2024/01/09 10:26:51;;;;;;;42.60;19.30;;;;;;;-8.59;61.06;102570.34;4995567;28;20253;-56
2024/01/09 10:29:19;;;;;;;43.43;21.07;;;;;;;-8.54;60.72;102574.25;4991930;28;20648;-54
2024/01/09 10:31:48;;;;;;;49.97;20.97;;;;;;;-8.48;60.37;102573.97;4987556;28;20214;-53
2024/01/09 10:34:15;;;;;;;45.40;19.73;;;;;;;-8.40;59.92;102576.53;4991537;28;20739;-52
2024/01/09 10:36:44;;;;;;;39.00;17.63;;;;;;;-8.40;58.79;102564.03;4995297;28;20318;-55
2024/01/09 10:39:12;;;;;;;38.60;17.00;;;;;;;-8.35;58.95;102562.91;4991897;28;20204;-55
2024/01/09 10:41:41;;;;;;;40.07;17.33;;;;;;;-8.28;58.45;102559.44;4991421;28;20211;-53
2024/01/09 10:44:14;;;;;;;43.37;17.73;;;;;;;-8.23;58.20;102562.41;4993055;28;20208;-53
2024/01/09 10:46:43;;;;;;;42.53;17.33;;;;;;;-8.18;58.77;102553.75;5001070;28;20207;-55
2024/01/09 10:49:13;;;;;;;38.83;17.13;;;;;;;-8.12;58.70;102549.38;4990052;28;20208;-56
2024/01/09 10:51:43;;;;;;;34.07;15.70;;;;;;;-8.04;59.10;102548.56;4998951;28;20604;-54
2024/01/09 10:54:13;;;;;;;38.73;15.37;;;;;;;-7.98;58.03;102545.81;4992438;28;20659;-56
2024/01/09 10:56:43;;;;;;;33.07;16.40;;;;;;;-7.98;58.18;102534.19;4995184;28;20583;-55
2024/01/09 10:59:14;;;;;;;37.83;16.77;;;;;;;-7.88;58.85;102536.00;4994231;28;20578;-53
2024/01/09 11:01:42;;;;;;;39.27;17.43;;;;;;;-7.82;58.00;102534.13;4994488;28;20572;-56
2024/01/09 11:04:10;;;;;;;38.33;16.73;;;;;;;-7.75;57.72;102538.16;4995558;28;20212;-55
2024/01/09 11:06:43;;;;;;;36.73;16.10;;;;;;;-7.72;57.73;102533.47;4994295;28;20251;-57
2024/01/09 11:09:16;;;;;;;33.97;15.87;;;;;;;-7.70;56.98;102536.97;4989635;28;20642;-64